Time;durP1;ratioP1;P1;durP2;ratioP2;P2;SDS_P1;SDS_P2;PMS_P1;PMS_P2;Temp;Humidity;BMP_temperature;BMP_pressure;BME280_temperature;BME280_humidity;BME280_pressure;Samples;Min_cycle;Max_cycle;Signal;HPM_P1;HPM_P2
2021/07/30 00:00:57;;;;;;;5.27;4.77;;;22.40;56.20;;;;;;5031968;28;20193;-47
2021/07/30 00:03:23;;;;;;;7.13;4.70;;;22.40;56.40;;;;;;5033021;28;20680;-47
2021/07/30 00:05:50;;;;;;;4.40;4.00;;;22.40;56.20;;;;;;5032510;28;20436;-47
2021/07/30 00:08:17;;;;;;;7.23;4.80;;;22.40;56.20;;;;;;5032829;28;20495;-46
2021/07/30 00:10:42;;;;;;;5.13;4.17;;;22.30;56.50;;;;;;5032298;28;20424;-48
2021/07/30 00:13:08;;;;;;;5.23;4.60;;;22.20;56.50;;;;;;5032350;28;20489;-50
2021/07/30 00:15:34;;;;;;;5.30;4.80;;;22.20;56.60;;;;;;5030939;28;20290;-50
2021/07/30 00:17:59;;;;;;;7.27;4.93;;;22.20;56.70;;;;;;5031595;28;20240;-47
2021/07/30 00:20:25;;;;;;;4.37;3.97;;;22.20;56.60;;;;;;5032330;28;20193;-47
2021/07/30 00:22:50;;;;;;;4.80;4.40;;;22.20;56.40;;;;;;5031610;28;20189;-47
2021/07/30 00:25:16;;;;;;;6.13;4.40;;;22.10;56.80;;;;;;5032747;28;20204;-46
2021/07/30 00:27:42;;;;;;;4.50;4.20;;;22.00;57.00;;;;;;5029310;28;20272;-47
2021/07/30 00:30:09;;;;;;;6.03;5.43;;;22.00;57.10;;;;;;5032395;28;20768;-47
2021/07/30 00:32:35;;;;;;;5.40;4.90;;;21.90;57.30;;;;;;5031322;28;20197;-47
2021/07/30 00:35:00;;;;;;;5.57;5.07;;;21.90;57.30;;;;;;5032582;28;20435;-46
2021/07/30 00:37:26;;;;;;;4.60;4.20;;;21.90;57.90;;;;;;5031788;28;20607;-46
2021/07/30 00:39:51;;;;;;;6.20;4.90;;;21.80;57.70;;;;;;5032086;28;20225;-46
2021/07/30 00:42:17;;;;;;;5.63;4.70;;;21.70;57.80;;;;;;5029739;28;20236;-49
2021/07/30 00:44:43;;;;;;;5.50;4.40;;;21.60;58.00;;;;;;5032172;28;20204;-47
2021/07/30 00:47:08;;;;;;;9.23;5.60;;;21.60;58.30;;;;;;5031755;28;20272;-46
2021/07/30 00:49:35;;;;;;;5.30;4.50;;;21.50;58.50;;;;;;5031623;28;20204;-46
2021/07/30 00:52:01;;;;;;;5.40;5.00;;;21.40;58.60;;;;;;5030999;28;20665;-47
2021/07/30 00:54:27;;;;;;;5.63;5.03;;;21.40;58.80;;;;;;5031987;28;20428;-47
2021/07/30 00:56:53;;;;;;;6.07;5.47;;;21.10;59.40;;;;;;5031596;28;20432;-50
2021/07/30 00:59:20;;;;;;;5.13;4.70;;;21.10;59.60;;;;;;5031672;28;20959;-47
2021/07/30 01:01:46;;;;;;;5.40;4.63;;;21.10;59.60;;;;;;5031053;28;20185;-46
2021/07/30 01:04:11;;;;;;;8.27;4.93;;;21.10;60.20;;;;;;5032058;28;20973;-46
2021/07/30 01:06:37;;;;;;;5.10;4.60;;;20.90;59.90;;;;;;5031611;28;20254;-47
2021/07/30 01:09:02;;;;;;;8.00;5.23;;;20.80;60.10;;;;;;5030058;28;20192;-46
2021/07/30 01:11:28;;;;;;;6.40;5.00;;;20.80;60.20;;;;;;5030939;28;20203;-46
2021/07/30 01:13:54;;;;;;;6.47;5.83;;;20.80;60.30;;;;;;5031900;28;20209;-46
2021/07/30 01:16:19;;;;;;;5.20;4.70;;;20.60;60.60;;;;;;5031032;28;20200;-47
2021/07/30 01:18:45;;;;;;;7.20;5.53;;;20.60;60.80;;;;;;5038060;28;20266;-46
2021/07/30 01:21:18;;;;;;;5.00;4.50;;;20.50;61.30;;;;;;5037261;28;20703;-46
2021/07/30 01:23:46;;;;;;;5.83;5.23;;;20.50;61.60;;;;;;5031845;28;20204;-46
2021/07/30 01:26:12;;;;;;;5.70;5.20;;;20.50;61.30;;;;;;5031077;28;20489;-46
2021/07/30 01:28:38;;;;;;;5.87;4.83;;;20.60;61.10;;;;;;5031529;28;20473;-46
2021/07/30 01:31:05;;;;;;;6.90;4.80;;;20.70;60.50;;;;;;5030273;28;20424;-46
2021/07/30 01:33:30;;;;;;;5.70;4.77;;;20.60;61.50;;;;;;5030993;28;20289;-48
2021/07/30 01:35:56;;;;;;;5.33;4.83;;;20.40;61.40;;;;;;5030115;28;20979;-46
2021/07/30 01:38:22;;;;;;;5.10;4.70;;;20.30;61.80;;;;;;5031330;28;20307;-46
2021/07/30 01:40:47;;;;;;;5.97;5.37;;;20.40;61.70;;;;;;5030282;28;20620;-50
2021/07/30 01:43:13;;;;;;;6.83;5.30;;;20.00;63.00;;;;;;5031615;28;20193;-46
2021/07/30 01:45:38;;;;;;;6.87;5.17;;;19.70;64.30;;;;;;5030756;28;20733;-47
2021/07/30 01:48:04;;;;;;;5.50;5.00;;;19.70;64.40;;;;;;5031245;28;20193;-48
2021/07/30 01:50:30;;;;;;;4.83;4.43;;;19.80;63.90;;;;;;5031458;28;20664;-46
2021/07/30 01:52:55;;;;;;;8.90;5.37;;;19.80;64.20;;;;;;5030382;28;20804;-46
2021/07/30 01:55:23;;;;;;;5.33;4.83;;;19.70;64.50;;;;;;5031292;28;20197;-46
2021/07/30 01:57:49;;;;;;;5.20;4.80;;;19.80;64.30;;;;;;5030760;28;20185;-46
2021/07/30 02:00:14;;;;;;;6.40;5.00;;;19.80;64.00;;;;;;5029554;28;20435;-46
2021/07/30 02:02:40;;;;;;;7.73;5.93;;;19.70;64.30;;;;;;5030597;28;20681;-47
2021/07/30 02:05:06;;;;;;;5.57;5.07;;;19.80;64.10;;;;;;5031213;28;20228;-46
2021/07/30 02:07:34;;;;;;;5.47;4.97;;;19.70;64.40;;;;;;5030753;28;20211;-46
2021/07/30 02:10:00;;;;;;;5.30;4.80;;;19.70;64.50;;;;;;5031297;28;20431;-47
2021/07/30 02:12:25;;;;;;;5.47;4.87;;;19.70;64.40;;;;;;5030303;28;20899;-46
2021/07/30 02:14:51;;;;;;;6.70;4.90;;;19.70;64.20;;;;;;5031084;28;20200;-46
2021/07/30 02:17:17;;;;;;;5.27;4.77;;;19.60;64.60;;;;;;5030640;28;20239;-49
2021/07/30 02:19:42;;;;;;;9.43;4.73;;;19.50;65.00;;;;;;5044741;28;20252;-46
2021/07/30 02:22:08;;;;;;;6.33;5.57;;;19.60;65.00;;;;;;5029940;28;20223;-46
2021/07/30 02:24:34;;;;;;;7.30;5.50;;;19.70;64.60;;;;;;5031137;28;20221;-46
2021/07/30 02:27:00;;;;;;;5.67;5.13;;;19.80;63.80;;;;;;5028968;28;20226;-46
2021/07/30 02:29:25;;;;;;;5.77;5.27;;;19.80;63.70;;;;;;5030837;28;20420;-46
2021/07/30 02:31:51;;;;;;;6.20;5.60;;;19.80;63.80;;;;;;5029929;28;20194;-46
2021/07/30 02:34:17;;;;;;;5.60;4.83;;;19.70;63.90;;;;;;5030934;28;20194;-48
2021/07/30 02:36:43;;;;;;;5.90;4.90;;;19.70;64.00;;;;;;5030575;28;20197;-46
2021/07/30 02:39:09;;;;;;;6.63;5.27;;;19.80;64.00;;;;;;5030730;28;20308;-46
2021/07/30 02:41:35;;;;;;;8.20;5.10;;;19.80;63.60;;;;;;5030436;28;20533;-46
2021/07/30 02:44:00;;;;;;;5.97;5.37;;;19.90;63.50;;;;;;5034512;28;20247;-46
2021/07/30 02:46:26;;;;;;;9.10;5.10;;;19.80;63.30;;;;;;5033829;28;20558;-46
2021/07/30 02:48:52;;;;;;;6.60;5.07;;;19.90;63.20;;;;;;5034107;28;20213;-47
2021/07/30 02:51:18;;;;;;;5.80;5.20;;;19.80;63.40;;;;;;5033317;28;20284;-47
2021/07/30 02:53:44;;;;;;;6.93;5.17;;;19.90;63.30;;;;;;5032656;28;20555;-46
2021/07/30 02:56:10;;;;;;;5.23;4.73;;;19.90;63.00;;;;;;5033677;28;20232;-47
2021/07/30 02:58:38;;;;;;;7.77;4.77;;;19.90;62.60;;;;;;5034274;28;20487;-47
2021/07/30 03:01:04;;;;;;;5.50;5.00;;;19.90;62.70;;;;;;5033299;28;20197;-47
2021/07/30 03:03:30;;;;;;;5.47;4.97;;;19.90;62.80;;;;;;5034014;28;20459;-46
2021/07/30 03:06:00;;;;;;;5.40;4.87;;;19.90;62.70;;;;;;5033380;28;20447;-48
2021/07/30 03:08:27;;;;;;;6.30;5.80;;;19.80;63.00;;;;;;5034003;28;20478;-46
2021/07/30 03:10:52;;;;;;;5.93;5.43;;;19.70;63.60;;;;;;5032917;28;20801;-47
2021/07/30 03:13:18;;;;;;;5.37;4.87;;;19.50;63.70;;;;;;5033863;28;20980;-47
2021/07/30 03:15:43;;;;;;;9.03;6.23;;;19.40;64.30;;;;;;5033328;28;20197;-46
2021/07/30 03:18:09;;;;;;;6.07;5.47;;;19.30;64.60;;;;;;5035347;28;20605;-46
2021/07/30 03:20:34;;;;;;;6.07;5.50;;;19.40;64.50;;;;;;5043101;28;20197;-47
2021/07/30 03:23:00;;;;;;;4.93;4.50;;;19.50;64.20;;;;;;5033407;28;20694;-46
2021/07/30 03:25:26;;;;;;;5.57;5.10;;;19.50;63.90;;;;;;5033734;28;20197;-47
2021/07/30 03:27:51;;;;;;;5.87;5.30;;;19.60;63.40;;;;;;5032840;28;20561;-46
2021/07/30 03:30:17;;;;;;;6.17;4.80;;;19.40;63.70;;;;;;5033503;28;20192;-47
2021/07/30 03:32:43;;;;;;;6.23;5.70;;;19.30;64.70;;;;;;5032697;28;20276;-46
2021/07/30 03:35:09;;;;;;;6.00;5.50;;;18.90;66.20;;;;;;5033735;28;20268;-46
2021/07/30 03:37:35;;;;;;;6.23;5.63;;;19.00;66.10;;;;;;5032881;28;20428;-46
2021/07/30 03:40:01;;;;;;;7.63;4.90;;;19.00;65.80;;;;;;5033647;28;20423;-46
2021/07/30 03:42:26;;;;;;;5.40;4.93;;;19.00;65.50;;;;;;5032219;28;20197;-47
2021/07/30 03:44:52;;;;;;;6.67;5.60;;;19.20;65.10;;;;;;5033387;28;20657;-46
2021/07/30 03:47:17;;;;;;;5.10;4.70;;;19.30;64.40;;;;;;5031049;28;20227;-47
2021/07/30 03:49:43;;;;;;;5.73;4.90;;;19.30;64.20;;;;;;5024714;28;20578;-46
2021/07/30 03:52:08;;;;;;;6.03;5.37;;;19.30;64.10;;;;;;5032045;28;20201;-47
2021/07/30 03:54:34;;;;;;;5.57;5.03;;;19.30;64.50;;;;;;5033317;28;20672;-47
2021/07/30 03:57:00;;;;;;;5.87;5.33;;;19.20;64.40;;;;;;5032420;28;20276;-46
2021/07/30 03:59:25;;;;;;;6.83;5.60;;;19.20;64.40;;;;;;5032904;28;20681;-46
2021/07/30 04:01:51;;;;;;;5.50;5.00;;;19.10;64.80;;;;;;5031777;28;20644;-46
2021/07/30 04:04:16;;;;;;;6.30;5.70;;;19.10;64.90;;;;;;5033371;28;20197;-47
2021/07/30 04:06:44;;;;;;;5.83;4.93;;;19.00;65.30;;;;;;5032352;28;20272;-46
2021/07/30 04:09:11;;;;;;;6.83;5.10;;;18.80;66.10;;;;;;5032930;28;20700;-47
2021/07/30 04:11:37;;;;;;;6.60;5.93;;;18.70;66.40;;;;;;5031762;28;20505;-46
2021/07/30 04:14:03;;;;;;;6.10;5.50;;;18.60;66.70;;;;;;5031196;28;20459;-46
2021/07/30 04:16:30;;;;;;;6.53;5.20;;;18.30;67.80;;;;;;5032195;28;20474;-46
2021/07/30 04:18:55;;;;;;;12.13;5.80;;;18.20;68.60;;;;;;5040916;28;20327;-46
2021/07/30 04:21:21;;;;;;;10.00;5.47;;;18.30;68.40;;;;;;5036364;28;21245;-45
2021/07/30 04:23:46;;;;;;;8.23;5.40;;;18.40;68.00;;;;;;5032641;28;20189;-47
2021/07/30 04:26:12;;;;;;;6.00;5.50;;;18.60;67.40;;;;;;5031977;28;20223;-46
2021/07/30 04:28:37;;;;;;;6.70;5.17;;;18.70;66.80;;;;;;5032611;28;20193;-46
2021/07/30 04:31:04;;;;;;;6.40;5.90;;;18.70;66.60;;;;;;5031486;28;20200;-46
2021/07/30 04:33:31;;;;;;;5.60;5.10;;;18.60;66.80;;;;;;5032453;28;20641;-46
2021/07/30 04:35:56;;;;;;;5.37;4.87;;;18.60;67.20;;;;;;5032074;28;20435;-46
2021/07/30 04:38:22;;;;;;;7.30;5.23;;;18.50;67.50;;;;;;5032452;28;20480;-46
2021/07/30 04:40:47;;;;;;;6.30;5.70;;;18.40;67.80;;;;;;5029619;28;20533;-49
2021/07/30 04:43:13;;;;;;;6.20;5.60;;;18.40;68.30;;;;;;5032461;28;20205;-46
2021/07/30 04:45:39;;;;;;;5.73;5.13;;;18.40;68.10;;;;;;5031534;28;20193;-46
2021/07/30 04:48:05;;;;;;;8.13;6.10;;;18.50;68.10;;;;;;5028962;28;20233;-46
2021/07/30 04:50:31;;;;;;;6.60;5.70;;;18.60;67.40;;;;;;5026353;28;20205;-46
2021/07/30 04:52:57;;;;;;;7.33;5.70;;;18.70;67.20;;;;;;5031443;28;20205;-46
2021/07/30 04:55:22;;;;;;;6.07;5.57;;;18.70;66.90;;;;;;5031994;28;20433;-46
2021/07/30 04:57:48;;;;;;;7.20;5.80;;;18.80;67.10;;;;;;5031291;28;20197;-48
2021/07/30 05:00:14;;;;;;;7.63;5.40;;;18.70;67.40;;;;;;5032442;28;20185;-46
2021/07/30 05:02:40;;;;;;;6.60;6.00;;;18.80;67.50;;;;;;5030831;28;20201;-45
2021/07/30 05:05:06;;;;;;;5.93;5.33;;;18.80;67.00;;;;;;5031614;28;20880;-48
2021/07/30 05:07:32;;;;;;;6.10;5.50;;;18.90;67.30;;;;;;5030445;28;20565;-46
2021/07/30 05:09:57;;;;;;;6.97;5.90;;;18.90;67.40;;;;;;5031486;28;20424;-46
2021/07/30 05:12:23;;;;;;;7.77;5.30;;;18.90;67.10;;;;;;5030910;28;20189;-46
2021/07/30 05:14:48;;;;;;;6.40;5.80;;;19.10;66.80;;;;;;5031752;28;20201;-47
2021/07/30 05:17:14;;;;;;;6.40;5.90;;;19.10;67.00;;;;;;5031355;28;20283;-46
2021/07/30 05:19:40;;;;;;;6.57;5.70;;;19.10;67.00;;;;;;5044650;28;20302;-46
2021/07/30 05:22:05;;;;;;;5.60;5.10;;;19.10;67.10;;;;;;5030676;28;20189;-46
2021/07/30 05:24:35;;;;;;;7.03;5.30;;;19.20;66.90;;;;;;5031707;28;20597;-46
2021/07/30 05:27:02;;;;;;;5.60;5.10;;;19.40;66.60;;;;;;5031252;28;20197;-46
2021/07/30 05:29:28;;;;;;;7.93;6.10;;;19.50;66.40;;;;;;5031320;28;20424;-46
2021/07/30 05:31:53;;;;;;;6.97;5.30;;;19.40;66.70;;;;;;5029147;28;20482;-48
2021/07/30 05:34:19;;;;;;;8.40;5.90;;;19.50;66.60;;;;;;5031295;28;20193;-47
2021/07/30 05:36:45;;;;;;;6.67;6.03;;;19.40;67.30;;;;;;5030906;28;20196;-46
2021/07/30 05:39:10;;;;;;;6.37;5.67;;;19.60;67.20;;;;;;5031268;28;20233;-47
2021/07/30 05:41:36;;;;;;;8.60;6.07;;;19.60;67.00;;;;;;5030621;28;20218;-47
2021/07/30 05:44:01;;;;;;;8.37;6.00;;;19.70;67.20;;;;;;5031449;28;20197;-48
2021/07/30 05:46:27;;;;;;;6.70;6.00;;;19.50;67.50;;;;;;5030817;28;20193;-46
2021/07/30 05:48:56;;;;;;;6.37;5.80;;;19.30;68.60;;;;;;5031427;28;20672;-46
2021/07/30 05:51:22;;;;;;;6.53;5.87;;;19.20;69.00;;;;;;5030395;28;20201;-46
2021/07/30 05:53:47;;;;;;;12.23;6.07;;;19.30;69.10;;;;;;5031299;28;20478;-48
2021/07/30 05:56:13;;;;;;;7.30;6.37;;;19.40;69.10;;;;;;5030733;28;20208;-46
2021/07/30 05:58:39;;;;;;;10.17;6.10;;;19.60;68.40;;;;;;5029765;28;20213;-46
2021/07/30 06:01:04;;;;;;;6.43;5.83;;;19.70;68.10;;;;;;5030382;28;20719;-47
2021/07/30 06:03:30;;;;;;;7.40;6.17;;;19.80;67.60;;;;;;5031351;28;20540;-46
2021/07/30 06:05:55;;;;;;;14.03;6.50;;;19.80;68.20;;;;;;5030358;28;20192;-46
2021/07/30 06:08:21;;;;;;;7.40;5.73;;;20.00;67.70;;;;;;5031149;28;20273;-47
2021/07/30 06:10:46;;;;;;;8.30;5.97;;;20.10;67.70;;;;;;5030451;28;20189;-47
2021/07/30 06:13:12;;;;;;;6.50;4.83;;;20.40;67.30;;;;;;5031607;28;20205;-47
2021/07/30 06:15:39;;;;;;;5.77;5.13;;;20.50;66.60;;;;;;5030821;28;20576;-50
2021/07/30 06:18:04;;;;;;;6.00;5.50;;;20.70;65.50;;;;;;5034921;28;20693;-46
2021/07/30 06:20:31;;;;;;;6.10;5.47;;;20.90;65.10;;;;;;5046635;28;20519;-46
2021/07/30 06:22:57;;;;;;;6.27;5.60;;;20.70;64.70;;;;;;5034161;28;20231;-46
2021/07/30 06:25:23;;;;;;;5.90;5.07;;;20.50;65.40;;;;;;5033096;28;21018;-46
2021/07/30 06:27:49;;;;;;;6.00;5.50;;;20.50;66.00;;;;;;5034270;28;20514;-46
2021/07/30 06:30:14;;;;;;;6.27;5.53;;;20.70;66.50;;;;;;5034935;28;20525;-46
2021/07/30 06:32:40;;;;;;;5.70;5.00;;;20.90;64.90;;;;;;5033979;28;20280;-46
2021/07/30 06:35:07;;;;;;;5.90;5.30;;;21.10;64.40;;;;;;5034467;28;20200;-47
2021/07/30 06:37:34;;;;;;;5.40;4.93;;;21.50;63.50;;;;;;5033987;28;20511;-47
2021/07/30 06:40:00;;;;;;;6.47;5.73;;;21.80;62.20;;;;;;5034527;28;20487;-47
2021/07/30 06:42:26;;;;;;;7.50;4.63;;;21.80;61.20;;;;;;5033514;28;20434;-47
2021/07/30 06:44:52;;;;;;;5.37;4.87;;;21.70;62.00;;;;;;5034665;28;20514;-47
2021/07/30 06:47:19;;;;;;;5.33;4.70;;;21.60;61.90;;;;;;5033671;28;20189;-48
2021/07/30 06:49:45;;;;;;;6.27;4.93;;;21.80;61.70;;;;;;5026299;28;20197;-47
2021/07/30 06:52:10;;;;;;;5.33;4.83;;;22.20;61.70;;;;;;5031572;28;20432;-47
2021/07/30 06:54:37;;;;;;;4.80;4.20;;;22.40;59.70;;;;;;5034554;28;20613;-47
2021/07/30 06:57:03;;;;;;;4.70;4.30;;;22.70;59.30;;;;;;5033338;28;20197;-46
2021/07/30 06:59:29;;;;;;;5.70;4.40;;;23.10;58.30;;;;;;5034175;28;20515;-47
2021/07/30 07:01:54;;;;;;;6.27;4.13;;;23.20;57.40;;;;;;5033125;28;20494;-47
2021/07/30 07:04:20;;;;;;;7.77;4.73;;;23.20;57.00;;;;;;5034377;28;20231;-49
2021/07/30 07:06:47;;;;;;;5.80;4.47;;;23.50;57.20;;;;;;5033676;28;20645;-46
2021/07/30 07:09:13;;;;;;;4.40;4.00;;;23.80;56.90;;;;;;5034003;28;20276;-47
2021/07/30 07:11:39;;;;;;;6.13;4.77;;;24.00;56.10;;;;;;5032941;28;20540;-47
2021/07/30 07:14:05;;;;;;;6.53;4.30;;;24.20;55.20;;;;;;5033897;28;20424;-46
2021/07/30 07:16:30;;;;;;;6.63;4.27;;;24.50;55.30;;;;;;5033464;28;20591;-47
2021/07/30 07:18:56;;;;;;;4.57;4.17;;;24.70;55.30;;;;;;5040190;28;20243;-46
2021/07/30 07:21:21;;;;;;;4.17;3.80;;;24.90;55.10;;;;;;5037889;28;20193;-46
2021/07/30 07:23:48;;;;;;;4.97;4.57;;;25.20;54.30;;;;;;5034158;28;20186;-50
2021/07/30 07:26:14;;;;;;;4.43;4.13;;;25.40;54.00;;;;;;5033609;28;20193;-47
2021/07/30 07:28:39;;;;;;;4.77;4.37;;;25.40;53.50;;;;;;5032960;28;20423;-47
2021/07/30 07:31:05;;;;;;;5.27;4.27;;;25.60;53.80;;;;;;5032607;28;20292;-49
2021/07/30 07:33:30;;;;;;;5.07;4.60;;;25.90;52.60;;;;;;5033621;28;20197;-46
2021/07/30 07:35:56;;;;;;;4.53;4.23;;;25.80;51.80;;;;;;5032917;28;20194;-47
2021/07/30 07:38:22;;;;;;;4.50;4.00;;;25.70;52.40;;;;;;5033262;28;20224;-47
2021/07/30 07:40:47;;;;;;;5.77;4.87;;;25.90;52.70;;;;;;5032643;28;20605;-49
2021/07/30 07:43:13;;;;;;;5.13;4.40;;;26.00;50.80;;;;;;5033628;28;20189;-47
2021/07/30 07:45:38;;;;;;;4.70;4.30;;;26.10;51.20;;;;;;5031348;28;20193;-47
2021/07/30 07:48:04;;;;;;;5.50;5.00;;;26.40;52.30;;;;;;5033154;28;20658;-49
2021/07/30 07:50:30;;;;;;;4.83;4.30;;;26.60;50.00;;;;;;5032936;28;20208;-47
2021/07/30 07:52:56;;;;;;;6.33;4.47;;;26.80;50.10;;;;;;5032676;28;20276;-47
2021/07/30 07:55:21;;;;;;;4.73;4.17;;;27.20;48.90;;;;;;5033494;28;20475;-47
2021/07/30 07:57:47;;;;;;;6.50;5.10;;;27.20;48.20;;;;;;5032325;28;20189;-49
2021/07/30 08:00:13;;;;;;;4.50;4.10;;;27.40;47.90;;;;;;5032890;28;20189;-47
2021/07/30 08:02:38;;;;;;;5.27;4.03;;;27.60;47.70;;;;;;5032368;28;20228;-46
2021/07/30 08:05:05;;;;;;;5.03;4.50;;;27.70;47.10;;;;;;5032979;28;20455;-48
2021/07/30 08:07:30;;;;;;;5.23;3.97;;;27.90;47.50;;;;;;5032103;28;20201;-47
2021/07/30 08:09:56;;;;;;;5.50;4.53;;;28.10;47.10;;;;;;5032854;28;20424;-47
2021/07/30 08:12:22;;;;;;;5.13;4.63;;;28.00;46.50;;;;;;5030327;28;20228;-49
2021/07/30 08:14:47;;;;;;;5.40;4.90;;;28.20;47.60;;;;;;5032937;28;20196;-48
2021/07/30 08:17:14;;;;;;;4.80;4.30;;;28.40;46.60;;;;;;5031984;28;20233;-47
2021/07/30 08:19:40;;;;;;;5.13;4.73;;;28.60;44.60;;;;;;5045477;28;20706;-47
2021/07/30 08:22:06;;;;;;;5.03;4.53;;;28.70;43.90;;;;;;5031688;28;20428;-47
2021/07/30 08:24:32;;;;;;;5.10;4.53;;;28.70;43.40;;;;;;5032575;28;20424;-47
2021/07/30 08:26:57;;;;;;;4.33;3.90;;;28.80;43.40;;;;;;5031873;28;20194;-47
2021/07/30 08:29:23;;;;;;;5.00;4.40;;;28.90;43.20;;;;;;5032411;28;20192;-48
2021/07/30 08:31:49;;;;;;;5.50;4.57;;;29.00;43.80;;;;;;5031762;28;20649;-47
2021/07/30 08:34:15;;;;;;;11.43;4.90;;;29.20;42.90;;;;;;5032763;28;20205;-47
2021/07/30 08:36:42;;;;;;;5.83;4.63;;;29.20;42.70;;;;;;5031688;28;20196;-51
2021/07/30 08:39:08;;;;;;;5.17;4.77;;;29.30;43.00;;;;;;5029992;28;20569;-50
2021/07/30 08:41:35;;;;;;;6.30;4.30;;;29.40;43.20;;;;;;5031519;28;20420;-52
2021/07/30 08:44:01;;;;;;;5.50;4.70;;;29.50;43.10;;;;;;5032368;28;20440;-49
2021/07/30 08:46:27;;;;;;;5.23;4.73;;;29.60;43.00;;;;;;5031752;28;20985;-51
2021/07/30 08:48:55;;;;;;;5.07;4.63;;;29.60;43.00;;;;;;5022985;28;20544;-51
2021/07/30 08:51:22;;;;;;;5.27;4.40;;;29.70;42.60;;;;;;5031240;28;20428;-52
2021/07/30 08:53:49;;;;;;;4.87;4.40;;;29.80;42.60;;;;;;5032025;28;20420;-51
2021/07/30 08:56:19;;;;;;;5.00;4.50;;;29.80;42.00;;;;;;5031316;28;21039;-51
2021/07/30 08:58:45;;;;;;;6.83;4.53;;;29.90;42.70;;;;;;5032069;28;20492;-52
2021/07/30 09:01:11;;;;;;;5.57;4.20;;;30.10;42.20;;;;;;5031199;28;20836;-48
2021/07/30 09:03:37;;;;;;;5.10;4.60;;;30.00;41.50;;;;;;5030447;28;20185;-53
2021/07/30 09:06:21;;;;;;;5.10;4.60;;;29.90;41.90;;;;;;5031153;28;20440;-52
2021/07/30 09:09:07;;;;;;;5.60;4.77;;;30.10;42.00;;;;;;5031899;28;20197;-51
2021/07/30 09:11:40;;;;;;;7.90;5.17;;;30.40;42.30;;;;;;5030925;28;20428;-52
2021/07/30 09:14:11;;;;;;;5.37;4.83;;;30.60;41.90;;;;;;5031905;28;20790;-52
2021/07/30 09:16:53;;;;;;;6.17;4.70;;;30.70;41.10;;;;;;5030779;28;20909;-51
2021/07/30 09:19:20;;;;;;;5.27;4.63;;;30.90;40.60;;;;;;5043108;28;20513;-52
2021/07/30 09:21:46;;;;;;;4.53;4.13;;;30.70;40.50;;;;;;5032989;28;20822;-51
2021/07/30 09:24:17;;;;;;;7.90;5.63;;;30.60;41.20;;;;;;5031382;28;20424;-50
2021/07/30 09:26:46;;;;;;;10.33;5.10;;;30.80;41.50;;;;;;5031038;28;20960;-52
2021/07/30 09:29:12;;;;;;;5.37;4.90;;;31.00;41.50;;;;;;5032273;28;20428;-50
2021/07/30 09:31:42;;;;;;;4.93;4.47;;;31.10;40.90;;;;;;5028942;28;20912;-47
2021/07/30 09:34:18;;;;;;;9.50;4.93;;;31.40;41.30;;;;;;5031341;28;20262;-47
2021/07/30 09:36:50;;;;;;;5.20;4.70;;;31.60;40.00;;;;;;5031231;28;20543;-49
2021/07/30 09:39:17;;;;;;;4.67;4.20;;;31.70;40.10;;;;;;5031575;28;20487;-48
2021/07/30 09:42:04;;;;;;;4.67;4.37;;;31.60;40.40;;;;;;5030918;28;20428;-49
2021/07/30 09:44:31;;;;;;;5.43;5.03;;;31.90;41.10;;;;;;5039659;28;20440;-48
2021/07/30 09:47:03;;;;;;;5.37;4.77;;;32.30;39.90;;;;;;5031004;28;20431;-48
2021/07/30 09:49:56;;;;;;;5.37;4.87;;;32.60;39.00;;;;;;5031318;28;20556;-52
2021/07/30 09:52:25;;;;;;;5.90;5.30;;;32.80;38.40;;;;;;5034745;28;20923;-48
2021/07/30 09:55:11;;;;;;;6.00;5.40;;;32.70;36.80;;;;;;5035582;28;20535;-48
2021/07/30 09:57:43;;;;;;;5.47;4.97;;;32.60;36.70;;;;;;5033252;28;20844;-48
2021/07/30 10:00:12;;;;;;;5.80;5.20;;;32.10;38.30;;;;;;5034904;28;21001;-47
2021/07/30 10:02:40;;;;;;;6.60;5.10;;;32.20;39.30;;;;;;5034860;28;20447;-47
2021/07/30 10:05:10;;;;;;;5.30;4.70;;;32.40;40.20;;;;;;5035235;28;20428;-50
2021/07/30 10:07:38;;;;;;;5.60;4.90;;;32.90;38.70;;;;;;5034813;28;20428;-47
2021/07/30 10:10:09;;;;;;;6.20;5.57;;;33.20;38.80;;;;;;5034815;28;20530;-50
2021/07/30 10:12:37;;;;;;;6.10;5.50;;;33.50;37.60;;;;;;5034575;28;20801;-48
2021/07/30 10:15:05;;;;;;;5.90;5.40;;;33.70;37.40;;;;;;5035107;28;20447;-52
2021/07/30 10:17:32;;;;;;;5.80;5.30;;;33.90;35.80;;;;;;5034362;28;20474;-49
2021/07/30 10:20:10;;;;;;;6.50;5.90;;;33.90;34.70;;;;;;5047901;28;20467;-48
2021/07/30 10:22:53;;;;;;;5.90;5.40;;;33.80;34.60;;;;;;5034373;28;20778;-49
2021/07/30 10:25:31;;;;;;;6.47;5.87;;;33.80;34.70;;;;;;5034233;28;20438;-48
2021/07/30 10:28:11;;;;;;;5.83;5.30;;;33.80;34.60;;;;;;5034221;28;20447;-48
2021/07/30 10:30:58;;;;;;;6.43;5.83;;;33.60;35.10;;;;;;5034329;28;20454;-49
2021/07/30 10:33:36;;;;;;;6.57;6.07;;;33.50;35.00;;;;;;5034810;28;20493;-48
2021/07/30 10:36:06;;;;;;;6.07;5.20;;;33.70;35.30;;;;;;5034469;28;20439;-48
2021/07/30 10:38:33;;;;;;;6.57;6.07;;;33.80;34.80;;;;;;5034786;28;20537;-49
2021/07/30 10:40:59;;;;;;;7.67;5.50;;;33.90;35.70;;;;;;5033614;28;20898;-47
2021/07/30 10:43:33;;;;;;;6.13;5.47;;;33.80;35.10;;;;;;5034660;28;20432;-48
2021/07/30 10:46:13;;;;;;;5.43;4.93;;;33.70;35.20;;;;;;5033775;28;20213;-48
2021/07/30 10:48:43;;;;;;;6.43;5.83;;;33.50;35.40;;;;;;5034522;28;20511;-48
2021/07/30 10:51:21;;;;;;;6.07;5.47;;;33.40;35.40;;;;;;5031777;28;20478;-47
2021/07/30 10:53:51;;;;;;;5.67;5.27;;;33.20;36.00;;;;;;5034281;28;20432;-49
2021/07/30 10:56:17;;;;;;;7.07;5.60;;;33.10;36.60;;;;;;5033885;28;20579;-49
2021/07/30 10:58:45;;;;;;;6.37;5.20;;;33.00;36.50;;;;;;5034365;28;20570;-48
2021/07/30 11:01:11;;;;;;;7.53;5.70;;;32.90;36.40;;;;;;5033343;28;20671;-48
2021/07/30 11:03:51;;;;;;;5.13;4.73;;;32.80;37.20;;;;;;5033256;28;20428;-48
2021/07/30 11:06:28;;;;;;;6.23;5.73;;;32.80;37.10;;;;;;5033639;28;20558;-49
2021/07/30 11:09:18;;;;;;;5.73;5.23;;;32.90;37.60;;;;;;5034055;28;20470;-47
2021/07/30 11:11:52;;;;;;;6.00;5.50;;;32.80;37.10;;;;;;5033018;28;20468;-48
2021/07/30 11:14:37;;;;;;;6.03;5.43;;;32.80;37.10;;;;;;5034017;28;20859;-50
2021/07/30 11:17:03;;;;;;;7.83;5.53;;;32.70;37.50;;;;;;5031772;28;20994;-48
2021/07/30 11:19:37;;;;;;;5.70;5.20;;;32.60;37.90;;;;;;5046592;28;20475;-48
2021/07/30 11:22:08;;;;;;;6.20;5.70;;;32.60;38.00;;;;;;5032711;28;20432;-48
2021/07/30 11:24:46;;;;;;;7.50;5.87;;;32.80;37.90;;;;;;5033775;28;20424;-48
2021/07/30 11:27:14;;;;;;;5.30;4.93;;;32.90;38.10;;;;;;5033184;28;20435;-49
2021/07/30 11:29:45;;;;;;;5.93;5.53;;;33.00;37.30;;;;;;5033094;28;20436;-50
2021/07/30 11:32:16;;;;;;;6.10;5.60;;;33.10;36.80;;;;;;5033417;28;20539;-49
2021/07/30 11:34:46;;;;;;;6.13;5.60;;;33.20;37.10;;;;;;5033518;28;20962;-48
2021/07/30 11:37:16;;;;;;;6.00;5.50;;;33.30;37.10;;;;;;5033171;28;20428;-48
2021/07/30 11:39:44;;;;;;;5.67;5.17;;;33.40;37.30;;;;;;5033086;28;20503;-50
2021/07/30 11:42:15;;;;;;;5.87;5.37;;;33.50;36.90;;;;;;5032728;28;20809;-48
2021/07/30 11:44:46;;;;;;;4.90;4.50;;;33.60;37.00;;;;;;5032127;28;20467;-48
2021/07/30 11:47:11;;;;;;;5.60;5.10;;;33.50;37.90;;;;;;5032667;28;20435;-47
2021/07/30 11:49:39;;;;;;;5.43;5.00;;;33.40;38.30;;;;;;5024779;28;20947;-50
2021/07/30 11:52:07;;;;;;;7.50;5.20;;;33.60;37.30;;;;;;5032443;28;20704;-49
2021/07/30 11:54:34;;;;;;;5.43;4.93;;;33.70;36.70;;;;;;5033217;28;20436;-48
2021/07/30 11:57:00;;;;;;;5.80;5.30;;;33.80;36.60;;;;;;5032563;28;20444;-48
2021/07/30 11:59:26;;;;;;;6.50;5.60;;;33.90;35.30;;;;;;5032992;28;20487;-48
2021/07/30 12:02:05;;;;;;;7.27;6.70;;;34.00;35.10;;;;;;5031777;28;20937;-48
2021/07/30 12:04:34;;;;;;;5.53;5.10;;;34.00;35.60;;;;;;5033162;28;20459;-48
2021/07/30 12:07:27;;;;;;;7.00;5.67;;;34.00;35.50;;;;;;5032529;28;20420;-50
2021/07/30 12:09:58;;;;;;;6.30;5.70;;;34.00;36.00;;;;;;5030893;28;20471;-48
2021/07/30 12:12:28;;;;;;;7.30;5.03;;;34.10;36.60;;;;;;5032001;28;20431;-47
2021/07/30 12:14:54;;;;;;;5.90;5.30;;;34.30;37.00;;;;;;5032842;28;20542;-49
2021/07/30 12:17:21;;;;;;;6.27;5.67;;;34.60;36.50;;;;;;5032316;28;20471;-48
2021/07/30 12:20:02;;;;;;;6.90;5.33;;;34.60;35.80;;;;;;5045718;28;20490;-50
2021/07/30 12:22:37;;;;;;;6.03;5.53;;;34.70;34.90;;;;;;5031678;28;20493;-48
2021/07/30 12:25:03;;;;;;;6.30;5.80;;;34.80;34.90;;;;;;5032677;28;20797;-48
2021/07/30 12:27:29;;;;;;;6.17;5.67;;;35.00;34.40;;;;;;5031803;28;20923;-50
2021/07/30 12:29:54;;;;;;;8.40;6.03;;;34.90;34.00;;;;;;5032278;28;20486;-47
2021/07/30 12:32:22;;;;;;;5.87;5.37;;;34.80;34.30;;;;;;5032052;28;20204;-49
2021/07/30 12:35:00;;;;;;;7.03;5.70;;;34.80;34.40;;;;;;5032072;28;20247;-51
2021/07/30 12:37:28;;;;;;;5.17;4.67;;;35.00;34.60;;;;;;5030203;28;20546;-48
2021/07/30 12:39:59;;;;;;;6.97;5.43;;;35.00;34.60;;;;;;5031966;28;20495;-48
2021/07/30 12:42:27;;;;;;;6.63;6.13;;;35.30;33.90;;;;;;5031674;28;20477;-49
2021/07/30 12:45:08;;;;;;;6.40;5.10;;;35.50;33.70;;;;;;5032057;28;20477;-49
2021/07/30 12:47:54;;;;;;;5.97;5.47;;;35.70;33.90;;;;;;5031839;28;20486;-48